โซล, ประเทศเกาหลีใต้

12:46 AM KST วัน ตุลาคม 24, 2014 (GMT +0900)
IGYEONGG5 | Change Station
CLOSE
Current Station
Personal Weather Stations
Location: Yongin-Si, GYEONGGI
Elevation: 312 ft
Nearby Weather Stations

Elev 312 ft 37.22 °N, 127.21 °E | Updated 36 seconds ago

Partly Cloudy
มีเมฆคลุมเป็นส่วนๆ
48.5 ฟาเรนไฮน์
Feels Like 48 ฟาเรนไฮน์
N
0.0
ลม ความผันแปร ลม from ทางทิศตะวันออกเฉียงใต้
Gusts 1.0 mph

วันนี้
High -- | Low -- ฟาเรนไฮน์
--% Chance of Precip.
Yesterday
High -- | Low -- ฟาเรนไฮน์
Precip. -- นิ้ว
6:48 AM 5:44 PM
เดือนเสี้ยว, 0% visible
ความดัน 30.12 นิ้ว
ทัศนวิสัย 6.2 ไมล์
เมฆ Few 2500 ft
ลมหนาว 48 ฟาเรนไฮน์
อุณหภูมิที่อากาศอาจจับตัวเป็นหยาดน้ำค้าง 48 ฟาเรนไฮน์
ความชื้น 99%
Rainfall 0.01 นิ้ว
Snow Depth Not available.
UV 0.0 out of 12
Pollen Not available.
Air Quality Not available.
Flu Activity Not available.
METAR RKSI 231530Z 14003KT 9999 FEW025 13/10 Q1020 NOSIG

More Conditions Fewer Conditions

ความดัน 30.12 นิ้ว
ทัศนวิสัย 6.2 ไมล์
เมฆ Few 2500 ft
ลมหนาว 48 ฟาเรนไฮน์
อุณหภูมิที่อากาศอาจจับตัวเป็นหยาดน้ำค้าง 48 ฟาเรนไฮน์
ความชื้น 99%
Rainfall 0.01 นิ้ว
Snow Depth Not available.
UV 0.0 out of 12
Pollen Not available.
Air Quality Not available.
Flu Activity Not available.
METAR RKSI 231530Z 14003KT 9999 FEW025 13/10 Q1020 NOSIG

More Conditions Fewer Conditions

10-Day Weather Forecast

Almanac

ดาราศาสตร์

Oct. 24, 2014 Rise Set
Actual Time 6:48 AM KST 5:44 PM KST
Civil Twilight 6:21 AM KST 6:10 PM KST
Nautical Twilight 5:51 AM KST 6:41 PM KST
Astronomical Twilight 5:20 AM KST 7:11 PM KST
Moon 6:51 AM KST (10/24) 6:00 PM KST (10/24)
Length Of Visible Light 11h 48m
ความยาวของวัน
10h 55m
Tomorrow will be 2m 14s shorter.
เดือนเสี้ยว, 0% of the Moon is Illuminated
Oct 23
เดือนเสี้ยว
Oct 23
New
Oct 30
ไตรมาสแรก
Nov 6
พระจันทร์เต็มดวง
Nov 14
ไตรมาสล่าสุด

Yesterday's Extremes

Country Highs Country Lows

Community

WunderPhotos

Upload Photos

1,764,288 photos uploaded!

WunderBlogs® & News

Nearby

Snow Depth

Not available.

Earthquake Activity

City Distance Mag. Time & Date
No recent earthquake activity has been reported nearby.
Minimum magnitude displayed is 2.5.

Coastal Water Temperatures

สถานที่ อุณหภูมิ
No Stations Reporting

Nearby Weather Stations